Time;durP1;ratioP1;P1;durP2;ratioP2;P2;SDS_P1;SDS_P2;PMS_P1;PMS_P2;Temp;Humidity;BMP_temperature;BMP_pressure;BME280_temperature;BME280_humidity;BME280_pressure;Samples;Min_cycle;Max_cycle;Signal;HPM_P1;HPM_P2
2022/07/24 00:00:36;;;;;;;7.32;5.45;;;;;;;23.48;43.03;64431.38;5041240;28;20241;-76
2022/07/24 00:03:02;;;;;;;12.82;5.70;;;;;;;23.47;43.23;64430.31;5043317;28;20226;-75
2022/07/24 00:05:29;;;;;;;8.43;4.65;;;;;;;23.31;42.96;64416.19;5042252;28;20211;-76
2022/07/24 00:07:56;;;;;;;6.85;4.65;;;;;;;23.25;44.24;64407.28;5042567;28;20221;-76
2022/07/24 00:10:23;;;;;;;7.18;4.57;;;;;;;23.07;42.97;64390.53;5040989;28;20498;-75
2022/07/24 00:12:50;;;;;;;7.10;5.45;;;;;;;23.05;43.25;64386.38;5042754;28;20401;-76
2022/07/24 00:15:19;;;;;;;7.05;5.25;;;;;;;23.00;44.03;64381.16;5042287;28;20202;-77
2022/07/24 00:17:45;;;;;;;9.57;5.55;;;;;;;23.07;42.76;64388.47;5042921;28;20263;-76
2022/07/24 00:20:13;;;;;;;8.65;4.85;;;;;;;22.99;43.70;64379.59;5040771;28;20205;-76
2022/07/24 00:22:40;;;;;;;10.70;5.07;;;;;;;22.98;43.02;64383.72;5042927;28;20229;-76
2022/07/24 00:25:07;;;;;;;9.68;5.18;;;;;;;22.94;43.65;64377.47;5042841;28;20268;-75
2022/07/24 00:27:34;;;;;;;7.65;5.90;;;;;;;23.01;42.88;64381.66;5040330;28;20288;-76
2022/07/24 00:30:01;;;;;;;11.32;5.75;;;;;;;22.96;43.48;64379.56;5042734;28;20265;-75
2022/07/24 00:32:29;;;;;;;14.50;6.15;;;;;;;22.90;43.84;64368.06;5042648;28;20449;-76
2022/07/24 00:34:56;;;;;;;5.22;4.57;;;;;;;22.78;44.05;64356.06;5046489;28;20200;-75
2022/07/24 00:37:23;;;;;;;5.55;5.13;;;;;;;22.67;43.34;64346.63;5045124;28;20221;-76
2022/07/24 00:39:50;;;;;;;7.95;4.88;;;;;;;22.66;43.67;64345.59;5046844;28;20206;-75
2022/07/24 00:42:17;;;;;;;7.43;5.13;;;;;;;22.65;43.50;64347.13;5044560;28;20232;-76
2022/07/24 00:44:44;;;;;;;7.10;4.68;;;;;;;22.66;42.67;64345.59;5046519;28;20202;-76
2022/07/24 00:47:11;;;;;;;9.35;4.70;;;;;;;22.66;42.80;64346.09;5044715;28;20255;-76
2022/07/24 00:49:39;;;;;;;10.32;4.80;;;;;;;22.70;42.51;64350.31;5046304;28;20356;-76
2022/07/24 00:52:06;;;;;;;5.65;4.60;;;;;;;22.76;42.01;64356.06;5046225;28;20217;-75
2022/07/24 00:54:33;;;;;;;6.70;4.53;;;;;;;22.81;42.40;64366.47;5046988;28;20420;-75
2022/07/24 00:56:59;;;;;;;8.30;5.57;;;;;;;22.83;42.49;64366.47;5044698;28;20225;-77
2022/07/24 00:59:26;;;;;;;12.43;5.13;;;;;;;22.69;43.79;64349.25;5046068;28;20201;-76
2022/07/24 01:01:53;;;;;;;5.07;4.60;;;;;;;22.68;42.84;64348.19;5045788;28;20237;-76
2022/07/24 01:04:20;;;;;;;8.43;4.75;;;;;;;22.73;42.38;64352.91;5045914;28;20197;-76
2022/07/24 01:06:49;;;;;;;5.18;4.30;;;;;;;22.73;43.85;64352.91;5044055;28;20229;-75
2022/07/24 01:09:18;;;;;;;10.15;4.63;;;;;;;22.77;43.65;64357.63;5045708;28;20235;-75
2022/07/24 01:11:45;;;;;;;7.40;4.68;;;;;;;22.78;41.66;64358.13;5045656;28;20217;-76
2022/07/24 01:14:12;;;;;;;7.22;5.00;;;;;;;22.84;41.75;64364.41;5044550;28;20193;-77
2022/07/24 01:16:39;;;;;;;10.63;5.78;;;;;;;22.85;42.54;64365.44;5044411;28;20220;-76
2022/07/24 01:19:06;;;;;;;9.60;5.03;;;;;;;22.89;43.54;64372.25;5045861;28;20197;-76
2022/07/24 01:21:34;;;;;;;6.30;4.97;;;;;;;22.75;44.67;64360.19;5045434;28;20533;-75
2022/07/24 01:24:01;;;;;;;9.32;5.78;;;;;;;22.64;44.92;64340.91;5043450;28;20194;-76
2022/07/24 01:26:28;;;;;;;9.00;6.55;;;;;;;22.62;45.56;64344.50;5045618;28;20260;-77
2022/07/24 01:28:55;;;;;;;12.20;6.10;;;;;;;22.54;46.58;64336.16;5045732;28;20236;-76
2022/07/24 01:31:22;;;;;;;9.07;6.25;;;;;;;22.49;47.03;64327.78;5044945;28;20190;-76
2022/07/24 01:33:49;;;;;;;11.02;6.60;;;;;;;22.46;46.93;64324.66;5042688;28;20201;-75
2022/07/24 01:36:16;;;;;;;9.27;6.65;;;;;;;22.44;47.37;64325.69;5045431;28;20197;-76
2022/07/24 01:38:45;;;;;;;11.32;6.30;;;;;;;22.27;48.42;64299.59;5045164;28;20221;-75
2022/07/24 01:41:11;;;;;;;8.13;6.30;;;;;;;22.19;49.00;64296.44;5045030;28;20225;-77
2022/07/24 01:43:38;;;;;;;13.38;6.53;;;;;;;22.16;47.76;64293.31;5043529;28;20454;-76
2022/07/24 01:46:05;;;;;;;8.18;6.60;;;;;;;22.04;48.38;64283.88;5044072;28;20276;-75
2022/07/24 01:48:32;;;;;;;10.73;6.78;;;;;;;22.05;48.66;64284.41;5045613;28;20247;-76
2022/07/24 01:50:59;;;;;;;10.77;6.30;;;;;;;21.95;47.69;64274.47;5042088;28;20214;-75
2022/07/24 01:53:26;;;;;;;13.80;5.75;;;;;;;21.97;47.06;64273.97;5044787;28;20255;-75
2022/07/24 01:55:55;;;;;;;10.00;5.80;;;;;;;21.88;47.08;64264.56;5045297;28;20201;-76
2022/07/24 01:58:22;;;;;;;10.52;5.35;;;;;;;21.92;47.57;64276.53;5044783;28;20263;-76
2022/07/24 02:00:49;;;;;;;8.75;5.60;;;;;;;21.88;46.85;64266.63;5042242;28;20212;-77
2022/07/24 02:03:16;;;;;;;7.97;5.50;;;;;;;22.02;46.05;64279.19;5045334;28;20513;-76
2022/07/24 02:05:42;;;;;;;5.85;4.93;;;;;;;22.00;45.95;64279.72;5044562;28;20224;-76
2022/07/24 02:08:09;;;;;;;5.05;4.40;;;;;;;21.99;46.87;64278.13;5044502;28;20288;-76
2022/07/24 02:10:36;;;;;;;9.70;5.25;;;;;;;21.93;46.47;64271.84;5042905;28;20276;-77
2022/07/24 02:13:04;;;;;;;9.40;5.35;;;;;;;21.95;46.75;64271.88;5044335;28;20245;-76
2022/07/24 02:15:31;;;;;;;8.85;4.93;;;;;;;22.00;46.34;64282.31;5044462;28;20264;-75
2022/07/24 02:18:01;;;;;;;9.32;5.55;;;;;;;22.00;46.33;64276.59;5043172;28;20217;-75
2022/07/24 02:20:29;;;;;;;8.00;5.32;;;;;;;22.00;47.90;64276.59;5045109;28;20196;-76
2022/07/24 02:22:56;;;;;;;5.60;5.03;;;;;;;21.98;49.06;64277.09;5044437;28;20240;-76
2022/07/24 02:25:23;;;;;;;10.57;5.57;;;;;;;21.92;48.98;64268.75;5044212;28;20193;-75
2022/07/24 02:27:50;;;;;;;8.00;5.10;;;;;;;21.92;47.47;64271.34;5042770;28;20233;-76
2022/07/24 02:30:22;;;;;;;7.53;6.00;;;;;;;21.81;47.12;64256.72;5045255;28;20418;-76
2022/07/24 02:32:49;;;;;;;9.90;5.47;;;;;;;21.74;46.97;64249.91;5044209;28;20224;-76
2022/07/24 02:35:16;;;;;;;6.18;5.15;;;;;;;21.79;47.87;64255.66;5044046;28;20244;-77
2022/07/24 02:37:45;;;;;;;10.23;6.03;;;;;;;21.78;47.86;64249.44;5042105;28;20225;-77
2022/07/24 02:40:14;;;;;;;13.98;5.53;;;;;;;21.79;47.75;64257.75;5044094;28;20393;-76
2022/07/24 02:42:41;;;;;;;10.23;5.90;;;;;;;21.76;47.80;64252.53;5043648;28;20237;-76
2022/07/24 02:45:09;;;;;;;7.05;5.10;;;;;;;21.74;49.10;64244.75;5042171;28;20193;-75
2022/07/24 02:47:47;;;;;;;11.88;6.20;;;;;;;21.65;49.16;64243.63;5024243;28;20218;-77
2022/07/24 02:50:14;;;;;;;11.18;5.95;;;;;;;21.53;49.72;64228.50;5023911;28;20217;-76
2022/07/24 02:52:41;;;;;;;8.13;6.07;;;;;;;21.55;49.79;64224.88;5023786;28;20218;-75
2022/07/24 02:55:08;;;;;;;12.88;6.88;;;;;;;21.48;50.94;64225.88;5033163;28;20209;-76
2022/07/24 02:57:35;;;;;;;15.40;7.30;;;;;;;21.43;51.57;64218.03;5043736;28;20263;-76
2022/07/24 03:00:02;;;;;;;10.77;7.72;;;;;;;21.43;51.75;64215.44;5043990;28;20552;-75
2022/07/24 03:02:29;;;;;;;8.88;6.70;;;;;;;21.38;52.33;64212.31;5043838;28;20234;-75
2022/07/24 03:04:58;;;;;;;10.10;6.55;;;;;;;21.33;52.36;64210.19;5042149;28;20198;-76
2022/07/24 03:07:25;;;;;;;42.40;27.65;;;;;;;21.24;51.44;64200.81;5043924;28;20284;-77
2022/07/24 03:09:52;;;;;;;10.40;6.43;;;;;;;21.25;52.31;64196.13;5043909;28;20200;-76
2022/07/24 03:12:19;;;;;;;19.27;12.75;;;;;;;21.21;51.56;64192.47;5041701;28;20433;-75
2022/07/24 03:14:46;;;;;;;22.00;13.10;;;;;;;21.20;50.59;64196.63;5042835;28;20197;-76
2022/07/24 03:17:13;;;;;;;10.00;6.78;;;;;;;21.32;51.79;64200.84;5042969;28;20217;-76
2022/07/24 03:19:40;;;;;;;7.45;6.20;;;;;;;21.24;52.72;64198.22;5043809;28;20197;-76
2022/07/24 03:22:08;;;;;;;10.13;6.10;;;;;;;21.26;52.97;64202.88;5041212;28;20233;-75
2022/07/24 03:24:35;;;;;;;10.07;5.70;;;;;;;21.25;52.44;64199.25;5043307;28;20232;-76
2022/07/24 03:27:02;;;;;;;8.15;5.75;;;;;;;21.26;51.36;64200.28;5043490;28;20529;-76
2022/07/24 03:29:28;;;;;;;10.48;6.60;;;;;;;21.35;50.40;64206.56;5043668;28;20224;-76
2022/07/24 03:31:55;;;;;;;7.03;5.72;;;;;;;21.35;50.56;64206.56;5041320;28;20239;-75
2022/07/24 03:34:22;;;;;;;6.45;5.82;;;;;;;21.47;50.32;64219.63;5043203;28;20197;-75
2022/07/24 03:36:49;;;;;;;11.93;6.30;;;;;;;21.59;49.75;64234.22;5043330;28;20522;-76
2022/07/24 03:39:18;;;;;;;10.80;6.30;;;;;;;21.61;49.99;64234.25;5042010;28;20207;-75
2022/07/24 03:41:45;;;;;;;8.05;6.15;;;;;;;21.70;49.97;64245.75;5042870;28;20248;-76
2022/07/24 03:44:11;;;;;;;8.23;6.15;;;;;;;21.75;50.00;64250.97;5043456;28;20189;-76
2022/07/24 03:46:38;;;;;;;12.57;7.40;;;;;;;21.81;49.61;64254.13;5043391;28;20193;-75
2022/07/24 03:49:06;;;;;;;13.65;6.32;;;;;;;21.85;49.68;64255.72;5042690;28;20208;-76
2022/07/24 03:51:34;;;;;;;10.30;6.43;;;;;;;21.91;49.51;64267.69;5043006;28;20209;-76
2022/07/24 03:54:01;;;;;;;9.90;6.32;;;;;;;22.00;49.61;64279.72;5043191;28;20198;-75
2022/07/24 03:56:30;;;;;;;10.48;5.45;;;;;;;22.09;49.69;64288.59;5043278;28;20193;-75
2022/07/24 03:58:56;;;;;;;10.02;5.90;;;;;;;22.13;49.05;64287.56;5041884;28;20204;-76
2022/07/24 04:01:23;;;;;;;10.75;6.15;;;;;;;22.21;48.87;64295.94;5043329;28;20197;-76
2022/07/24 04:03:50;;;;;;;7.40;5.55;;;;;;;22.30;48.72;64311.06;5043347;28;20204;-75
2022/07/24 04:06:17;;;;;;;10.20;5.60;;;;;;;22.50;48.85;64329.34;5043101;28;20472;-76
2022/07/24 04:08:45;;;;;;;8.52;5.40;;;;;;;22.29;50.21;64304.81;5042921;28;20224;-75
2022/07/24 04:11:11;;;;;;;11.25;5.72;;;;;;;22.45;50.04;64329.31;5043887;28;20200;-74
2022/07/24 04:13:40;;;;;;;8.07;5.15;;;;;;;22.44;48.77;64322.56;5043452;28;20217;-76
2022/07/24 04:16:07;;;;;;;13.40;6.10;;;;;;;22.51;49.05;64330.41;5042267;28;20260;-75
2022/07/24 04:18:34;;;;;;;7.80;5.65;;;;;;;22.57;49.59;64341.38;5043436;28;20221;-76
2022/07/24 04:21:00;;;;;;;6.72;5.78;;;;;;;22.65;49.67;64347.66;5043192;28;20201;-76
2022/07/24 04:23:27;;;;;;;9.38;5.72;;;;;;;22.64;50.72;64343.50;5042361;28;20237;-75
2022/07/24 04:25:54;;;;;;;8.80;5.13;;;;;;;22.81;51.42;64358.69;5039031;28;20288;-76
2022/07/24 04:28:21;;;;;;;7.97;5.90;;;;;;;22.87;50.57;64367.53;5042804;28;20271;-76
2022/07/24 04:30:49;;;;;;;11.27;6.40;;;;;;;22.94;50.32;64374.88;5042681;28;20430;-76
2022/07/24 04:33:16;;;;;;;14.80;6.70;;;;;;;23.10;49.60;64393.69;5039792;28;20217;-76
2022/07/24 04:35:43;;;;;;;12.75;6.72;;;;;;;23.16;48.25;64397.38;5042375;28;20208;-76
2022/07/24 04:38:10;;;;;;;9.07;6.22;;;;;;;23.31;48.44;64415.66;5042222;28;20217;-75
2022/07/24 04:40:37;;;;;;;9.43;6.32;;;;;;;23.41;49.13;64423.53;5040989;28;20228;-76
2022/07/24 04:43:03;;;;;;;8.25;6.40;;;;;;;23.52;49.98;64438.16;5042499;28;20232;-75
2022/07/24 04:45:30;;;;;;;9.93;6.75;;;;;;;23.63;49.37;64452.28;5042399;28;20197;-76
2022/07/24 04:47:59;;;;;;;11.68;7.47;;;;;;;23.73;47.68;64460.13;5042541;28;20217;-74
2022/07/24 04:50:25;;;;;;;10.10;6.70;;;;;;;23.68;49.27;64454.91;5041077;28;20240;-76
2022/07/24 04:52:52;;;;;;;9.70;7.20;;;;;;;23.71;50.28;64458.03;5042661;28;20224;-76
2022/07/24 04:55:19;;;;;;;11.90;6.50;;;;;;;23.51;52.58;64434.50;5042191;28;20236;-76
2022/07/24 04:57:46;;;;;;;12.25;6.90;;;;;;;23.47;52.54;64430.31;5042107;28;20221;-75
2022/07/24 05:00:14;;;;;;;13.85;7.07;;;;;;;22.99;54.32;64380.09;5040239;28;20209;-76
2022/07/24 05:02:41;;;;;;;11.38;8.27;;;;;;;23.01;55.30;64386.84;5042238;28;20286;-75
2022/07/24 05:05:10;;;;;;;16.38;8.13;;;;;;;22.89;55.58;64372.25;5042151;28;20201;-75
2022/07/24 05:07:37;;;;;;;10.75;6.50;;;;;;;22.99;53.84;64379.59;5042275;28;20221;-75
2022/07/24 05:10:05;;;;;;;16.63;8.23;;;;;;;23.08;55.78;64391.56;5040656;28;20209;-75
2022/07/24 05:12:32;;;;;;;11.50;7.05;;;;;;;23.24;54.79;64403.66;5041699;28;20586;-76
2022/07/24 05:14:59;;;;;;;14.90;8.63;;;;;;;23.29;54.99;64408.38;5041981;28;20256;-75
2022/07/24 05:17:26;;;;;;;12.18;8.05;;;;;;;23.14;56.00;64398.41;5040879;28;20220;-76
2022/07/24 05:19:53;;;;;;;14.60;7.97;;;;;;;23.21;56.62;64405.69;5042383;28;20194;-76
2022/07/24 05:22:21;;;;;;;13.98;7.60;;;;;;;23.16;56.02;64400.47;5045526;28;20274;-76
2022/07/24 05:24:48;;;;;;;15.95;7.55;;;;;;;23.12;56.19;64393.69;5045908;28;20200;-75
2022/07/24 05:27:15;;;;;;;16.77;8.35;;;;;;;23.32;54.41;64409.44;5043775;28;20233;-75
2022/07/24 05:29:42;;;;;;;9.27;7.88;;;;;;;23.31;54.34;64416.19;5045145;28;20220;-75
2022/07/24 05:32:09;;;;;;;14.18;8.65;;;;;;;23.56;53.87;64436.63;5045563;28;20221;-76
2022/07/24 05:34:36;;;;;;;16.42;8.07;;;;;;;23.68;53.90;64452.28;5045184;28;20269;-75
2022/07/24 05:37:03;;;;;;;18.08;8.63;;;;;;;23.62;54.19;64448.63;5044103;28;20542;-75
2022/07/24 05:39:31;;;;;;;18.27;8.82;;;;;;;23.67;54.08;64448.66;5045021;28;20197;-75
2022/07/24 05:41:58;;;;;;;14.23;8.48;;;;;;;23.79;55.41;64463.81;5045327;28;20236;-76
2022/07/24 05:44:25;;;;;;;12.82;9.68;;;;;;;24.10;55.02;64493.16;5040613;28;20198;-76
2022/07/24 05:46:52;;;;;;;16.88;9.25;;;;;;;24.16;55.34;64501.50;5045221;28;20560;-75
2022/07/24 05:49:19;;;;;;;15.45;7.53;;;;;;;24.42;53.70;64536.53;5044645;28;20575;-75
2022/07/24 05:51:46;;;;;;;14.00;9.13;;;;;;;24.56;54.55;64543.91;5045183;28;20491;-75
2022/07/24 05:54:13;;;;;;;19.38;8.27;;;;;;;24.57;54.29;64544.97;5042853;28;20209;-76
2022/07/24 05:56:41;;;;;;;25.63;9.30;;;;;;;24.73;53.61;64563.81;5044623;28;20193;-75
2022/07/24 05:59:08;;;;;;;12.68;8.70;;;;;;;24.98;51.78;64590.00;5044791;28;20217;-76
2022/07/24 06:01:35;;;;;;;16.15;8.52;;;;;;;25.06;50.81;64596.28;5044607;28;20251;-75
2022/07/24 06:04:01;;;;;;;19.20;8.52;;;;;;;25.19;50.71;64611.47;5042848;28;20232;-75
2022/07/24 06:06:28;;;;;;;11.75;8.57;;;;;;;25.48;49.47;64641.88;5044760;28;20201;-76
2022/07/24 06:08:55;;;;;;;17.58;8.27;;;;;;;25.70;49.76;64668.06;5044807;28;20197;-76
2022/07/24 06:11:23;;;;;;;11.10;7.65;;;;;;;26.01;48.19;64695.31;5042832;28;20447;-76
2022/07/24 06:13:51;;;;;;;13.52;8.32;;;;;;;26.20;49.04;64717.34;5044873;28;20537;-76
2022/07/24 06:16:18;;;;;;;16.25;8.63;;;;;;;26.36;48.96;64734.13;5044346;28;20201;-75
2022/07/24 06:18:45;;;;;;;16.05;8.63;;;;;;;26.20;47.53;64717.88;5044362;28;20217;-77
2022/07/24 06:21:12;;;;;;;24.05;10.25;;;;;;;26.06;48.21;64700.06;5042723;28;20202;-75
2022/07/24 06:23:39;;;;;;;14.23;8.23;;;;;;;26.14;46.95;64708.97;5044684;28;20271;-74
2022/07/24 06:26:06;;;;;;;14.25;7.75;;;;;;;26.05;46.81;64702.16;5044436;28;20198;-75
2022/07/24 06:28:33;;;;;;;12.30;7.75;;;;;;;26.20;45.61;64715.25;5044223;28;20218;-75
2022/07/24 06:31:01;;;;;;;11.80;7.40;;;;;;;26.09;44.70;64701.13;5041986;28;20228;-75
2022/07/24 06:33:28;;;;;;;14.73;8.18;;;;;;;26.17;45.92;64712.13;5044322;28;20497;-76
2022/07/24 06:35:55;;;;;;;19.15;7.68;;;;;;;26.23;45.44;64717.38;5044054;28;20204;-76
2022/07/24 06:38:22;;;;;;;10.52;8.23;;;;;;;26.23;43.36;64723.13;5042286;28;20224;-75
2022/07/24 06:40:49;;;;;;;19.75;8.73;;;;;;;26.28;44.02;64725.22;5044371;28;20198;-75
2022/07/24 06:43:16;;;;;;;16.85;8.30;;;;;;;26.23;44.18;64719.97;5044109;28;20237;-77
2022/07/24 06:45:43;;;;;;;10.68;7.35;;;;;;;26.37;44.15;64735.16;5043903;28;20217;-77
2022/07/24 06:48:11;;;;;;;12.18;7.10;;;;;;;26.68;43.39;64764.56;5042388;28;20431;-75
2022/07/24 06:50:38;;;;;;;13.82;7.68;;;;;;;26.83;42.23;64777.69;5043901;28;20243;-75
2022/07/24 06:53:05;;;;;;;18.42;7.70;;;;;;;27.05;42.00;64808.59;5043900;28;20237;-76
2022/07/24 06:55:31;;;;;;;11.32;7.65;;;;;;;27.12;42.21;64813.88;5043829;28;20390;-76
2022/07/24 06:57:58;;;;;;;13.15;8.05;;;;;;;27.06;41.86;64804.94;5041556;28;20221;-75
2022/07/24 07:00:25;;;;;;;13.73;8.30;;;;;;;27.35;43.19;64831.72;5043775;28;20257;-75
2022/07/24 07:02:53;;;;;;;20.83;9.20;;;;;;;27.42;43.55;64841.69;5043800;28;20304;-74
2022/07/24 07:05:23;;;;;;;18.33;8.93;;;;;;;27.50;42.49;64855.84;5042833;28;20208;-75
2022/07/24 07:07:50;;;;;;;16.98;8.00;;;;;;;27.65;41.72;64866.34;5024749;28;20225;-75
2022/07/24 07:10:17;;;;;;;18.67;8.95;;;;;;;27.57;40.66;64857.94;5023411;28;20514;-75
2022/07/24 07:12:44;;;;;;;15.98;8.82;;;;;;;27.49;42.68;64849.53;5023531;28;20210;-76
2022/07/24 07:15:11;;;;;;;18.10;7.93;;;;;;;27.73;40.87;64882.06;5029189;28;20205;-75
2022/07/24 07:17:39;;;;;;;15.07;7.75;;;;;;;27.88;40.19;64889.97;5043598;28;20245;-75
2022/07/24 07:20:07;;;;;;;16.52;8.82;;;;;;;27.85;40.55;64889.44;5043231;28;20265;-75
2022/07/24 07:22:35;;;;;;;16.00;9.70;;;;;;;27.70;40.35;64873.69;5044221;28;20295;-75
2022/07/24 07:25:02;;;;;;;12.27;9.00;;;;;;;27.64;42.21;64867.91;5041526;28;20240;-75
2022/07/24 07:27:29;;;;;;;17.67;8.95;;;;;;;27.42;40.78;64844.31;5043074;28;20309;-75
2022/07/24 07:29:56;;;;;;;14.07;8.48;;;;;;;27.72;40.97;64876.31;5042987;28;20216;-75
2022/07/24 07:32:22;;;;;;;16.08;9.00;;;;;;;27.68;40.73;64872.09;5043205;28;20221;-76
2022/07/24 07:34:50;;;;;;;16.05;7.93;;;;;;;27.86;39.55;64882.63;5040270;28;20205;-76
2022/07/24 07:37:17;;;;;;;14.90;8.32;;;;;;;27.97;39.73;64899.44;5043686;28;20313;-76
2022/07/24 07:39:45;;;;;;;11.80;8.65;;;;;;;28.23;39.01;64929.84;5043714;28;20530;-77
2022/07/24 07:42:12;;;;;;;10.43;8.00;;;;;;;28.53;38.88;64962.97;5040623;28;20232;-76
2022/07/24 07:44:39;;;;;;;13.57;8.63;;;;;;;28.78;38.04;64987.13;5042891;28;20240;-75
2022/07/24 07:47:06;;;;;;;10.30;8.77;;;;;;;28.99;38.13;65008.66;5042875;28;20254;-76
2022/07/24 07:49:33;;;;;;;12.70;8.68;;;;;;;28.86;37.35;64995.53;5043179;28;20194;-75
2022/07/24 07:52:00;;;;;;;17.42;9.63;;;;;;;28.46;38.39;64950.88;5041459;28;20221;-76
2022/07/24 07:54:26;;;;;;;15.98;9.73;;;;;;;28.78;38.08;64987.13;5042884;28;20229;-75
2022/07/24 07:56:55;;;;;;;13.68;8.82;;;;;;;28.90;37.70;64997.09;5042851;28;20224;-75
2022/07/24 07:59:22;;;;;;;14.18;8.93;;;;;;;28.96;38.34;65008.13;5042853;28;20490;-76
2022/07/24 08:01:49;;;;;;;14.38;9.02;;;;;;;29.12;38.55;65025.47;5041071;28;20451;-76
2022/07/24 08:04:16;;;;;;;11.63;9.00;;;;;;;29.11;39.13;65021.78;5042894;28;20228;-76
2022/07/24 08:06:42;;;;;;;13.30;8.05;;;;;;;29.32;38.20;65038.63;5042719;28;20434;-77
2022/07/24 08:09:09;;;;;;;14.13;9.07;;;;;;;29.56;37.57;65068.56;5041181;28;20244;-76
2022/07/24 08:11:36;;;;;;;14.65;9.38;;;;;;;29.58;37.52;65068.03;5042815;28;20228;-75
2022/07/24 08:14:06;;;;;;;17.00;8.93;;;;;;;29.22;38.14;65032.84;5043228;28;20268;-76
2022/07/24 08:16:32;;;;;;;10.70;9.35;;;;;;;29.30;37.82;65038.63;5042449;28;20502;-76
2022/07/24 08:18:59;;;;;;;15.57;8.77;;;;;;;29.35;37.64;65044.41;5040983;28;20209;-76
2022/07/24 08:21:28;;;;;;;17.25;9.95;;;;;;;29.38;39.20;65049.66;5042546;28;20205;-75
2022/07/24 08:23:54;;;;;;;16.58;9.85;;;;;;;29.34;38.74;65045.44;5042635;28;20260;-76
2022/07/24 08:26:21;;;;;;;19.33;9.80;;;;;;;29.50;37.81;65064.88;5042793;28;20197;-74
2022/07/24 08:28:48;;;;;;;12.25;9.18;;;;;;;29.52;37.54;65061.75;5040793;28;20553;-76
2022/07/24 08:31:17;;;;;;;15.70;8.88;;;;;;;30.03;37.18;65120.59;5042337;28;20217;-75
2022/07/24 08:33:43;;;;;;;12.20;9.65;;;;;;;30.13;36.53;65125.88;5042319;28;20227;-75
2022/07/24 08:36:10;;;;;;;12.48;9.07;;;;;;;30.50;37.11;65159.53;5040704;28;20240;-75
2022/07/24 08:38:37;;;;;;;12.27;9.40;;;;;;;30.57;35.15;65169.00;5042710;28;20438;-75
2022/07/24 08:41:04;;;;;;;13.38;9.43;;;;;;;30.86;35.42;65204.25;5042132;28;20197;-75
2022/07/24 08:43:31;;;;;;;9.82;8.82;;;;;;;30.76;35.18;65196.88;5042602;28;20283;-76
2022/07/24 08:46:01;;;;;;;15.40;9.02;;;;;;;31.04;34.82;65217.91;5040608;28;20240;-76
2022/07/24 08:48:29;;;;;;;15.10;9.82;;;;;;;31.60;34.01;65280.03;5042052;28;20214;-77
2022/07/24 08:50:59;;;;;;;16.38;9.50;;;;;;;31.66;34.13;65294.25;5042320;28;20201;-76
2022/07/24 08:53:26;;;;;;;13.82;9.32;;;;;;;31.62;33.63;65286.88;5042686;28;20221;-75
2022/07/24 08:55:52;;;;;;;12.57;9.27;;;;;;;31.78;33.36;65297.91;5044155;28;20510;-76
2022/07/24 08:58:19;;;;;;;12.52;9.38;;;;;;;32.18;32.80;65342.69;5046107;28;20225;-75
2022/07/24 09:00:46;;;;;;;13.43;9.43;;;;;;;32.50;33.29;65376.91;5045588;28;20436;-76
2022/07/24 09:03:13;;;;;;;13.05;9.38;;;;;;;32.82;34.22;65417.47;5044624;28;20237;-76
2022/07/24 09:06:08;;;;;;;16.92;10.20;;;;;;;32.61;35.20;65388.50;5042774;28;20209;-76
2022/07/24 09:08:35;;;;;;;11.18;9.32;;;;;;;32.50;35.38;65379.03;5032099;28;20424;-77
2022/07/24 09:11:04;;;;;;;13.82;9.50;;;;;;;32.50;34.88;65373.75;5045425;28;20520;-76
2022/07/24 09:14:29;;;;;;;14.32;9.60;;;;;;;32.34;34.95;65359.53;5044289;28;20221;-75
2022/07/24 09:16:24;;;;;;;16.60;9.82;;;;;;;32.40;35.53;65366.38;5045976;28;20205;-75
2022/07/24 09:18:53;;;;;;;21.52;10.20;;;;;;;32.18;34.62;65345.31;5045581;28;20197;-75
2022/07/24 09:21:21;;;;;;;19.85;9.82;;;;;;;32.33;33.75;65358.47;5043598;28;20444;-77
2022/07/24 09:23:48;;;;;;;14.13;9.68;;;;;;;32.39;34.27;65365.31;5045538;28;20283;-76
2022/07/24 09:26:15;;;;;;;10.57;9.25;;;;;;;32.33;34.97;65361.09;5045888;28;20201;-76
2022/07/24 09:28:50;;;;;;;10.73;9.25;;;;;;;32.38;35.25;65361.63;5045603;28;20293;-75
2022/07/24 09:31:17;;;;;;;12.50;10.15;;;;;;;32.45;35.31;65368.47;5043979;28;20208;-76
2022/07/24 09:33:44;;;;;;;11.10;9.82;;;;;;;32.44;35.70;65370.59;5045856;28;20218;-75
2022/07/24 09:36:13;;;;;;;15.80;10.40;;;;;;;32.75;35.77;65400.09;5045374;28;20197;-75
2022/07/24 09:38:47;;;;;;;13.80;10.48;;;;;;;32.66;36.31;65393.78;5045975;28;20217;-76
2022/07/24 09:41:20;;;;;;;10.68;9.57;;;;;;;32.85;36.52;65418.00;5043298;28;20387;-76
2022/07/24 09:43:58;;;;;;;14.23;9.43;;;;;;;32.92;38.24;65412.72;5045491;28;20229;-75
2022/07/24 09:46:26;;;;;;;15.38;9.45;;;;;;;33.20;35.62;65452.25;5045068;28;20213;-76
2022/07/24 09:48:56;;;;;;;18.00;9.50;;;;;;;33.22;34.38;65449.09;5041687;28;20190;-77
2022/07/24 09:51:25;;;;;;;11.23;9.05;;;;;;;33.00;34.48;65431.69;5044983;28;20198;-75
2022/07/24 09:53:57;;;;;;;11.90;9.70;;;;;;;33.23;32.71;65458.59;5045077;28;20197;-75
2022/07/24 09:56:24;;;;;;;11.27;8.65;;;;;;;33.22;32.69;65449.59;5044988;28;20197;-76
2022/07/24 09:58:52;;;;;;;14.75;10.23;;;;;;;33.32;31.97;65460.16;5042812;28;20268;-76
2022/07/24 10:01:22;;;;;;;13.27;7.60;;;;;;;33.57;26.67;65485.97;5044430;28;20197;-76
2022/07/24 10:03:51;;;;;;;11.15;6.57;;;;;;;33.79;26.46;65509.69;5025075;28;20233;-75
2022/07/24 10:06:21;;;;;;;13.70;7.30;;;;;;;34.18;26.48;65552.41;5024537;28;20206;-75
2022/07/24 10:08:51;;;;;;;16.13;7.72;;;;;;;34.35;26.92;65573.50;5042635;28;20197;-75
2022/07/24 10:11:21;;;;;;;14.02;7.50;;;;;;;34.14;26.68;65546.06;5044700;28;20501;-75
2022/07/24 10:13:49;;;;;;;15.27;7.10;;;;;;;34.27;26.07;65561.91;5044904;28;20201;-76
2022/07/24 10:16:30;;;;;;;7.93;6.32;;;;;;;34.18;24.70;65555.03;5043570;28;20208;-76
2022/07/24 10:18:59;;;;;;;7.65;6.43;;;;;;;34.40;24.44;65576.13;5044597;28;20240;-76
2022/07/24 10:21:28;;;;;;;8.32;6.63;;;;;;;34.11;25.75;65545.56;5043919;28;20376;-77
2022/07/24 10:24:23;;;;;;;10.13;6.38;;;;;;;34.36;24.99;65577.19;5045022;28;20283;-77
2022/07/24 10:26:53;;;;;;;7.95;5.38;;;;;;;34.70;25.17;65605.13;5024130;28;20233;-76
2022/07/24 10:29:22;;;;;;;11.32;7.03;;;;;;;34.64;23.49;65603.56;5044632;28;20178;-75
2022/07/24 10:31:51;;;;;;;9.20;6.10;;;;;;;34.37;24.04;65572.97;5044685;28;20239;-75
2022/07/24 10:34:28;;;;;;;9.80;5.90;;;;;;;34.28;24.59;65565.59;5042441;28;20205;-76
2022/07/24 10:37:04;;;;;;;13.38;7.25;;;;;;;34.21;24.53;65552.91;5044138;28;20225;-75
2022/07/24 10:39:39;;;;;;;8.05;6.13;;;;;;;33.84;24.87;65522.88;5044546;28;20549;-75
2022/07/24 10:42:08;;;;;;;10.75;6.55;;;;;;;33.78;25.45;65516.03;5044788;28;20252;-75
2022/07/24 10:44:36;;;;;;;10.48;6.55;;;;;;;33.68;26.10;65503.38;5042449;28;20236;-75
2022/07/24 10:47:06;;;;;;;9.38;7.28;;;;;;;33.35;26.12;65457.47;5044130;28;20225;-76
2022/07/24 10:49:44;;;;;;;7.38;6.68;;;;;;;33.32;26.06;65460.16;5044229;28;20227;-76
2022/07/24 10:52:21;;;;;;;8.40;7.25;;;;;;;33.57;26.60;65486.50;5041805;28;20517;-76
2022/07/24 10:54:48;;;;;;;13.82;8.45;;;;;;;33.95;25.56;65530.81;5044275;28;20437;-75
2022/07/24 10:57:16;;;;;;;8.00;7.07;;;;;;;33.91;26.48;65526.56;5044148;28;20263;-75
2022/07/24 10:59:43;;;;;;;7.72;7.10;;;;;;;34.07;25.90;65538.69;5044026;28;20194;-77
2022/07/24 11:02:32;;;;;;;11.13;7.50;;;;;;;34.16;26.61;65552.94;5041765;28;20364;-76
2022/07/24 11:05:25;;;;;;;11.23;6.88;;;;;;;34.15;25.94;65554.53;5044139;28;20220;-75
2022/07/24 11:08:31;;;;;;;7.82;7.03;;;;;;;34.56;25.15;65593.03;5043931;28;20221;-76
2022/07/24 11:11:01;;;;;;;7.93;7.22;;;;;;;35.04;25.34;65645.25;5025220;28;20383;-75
2022/07/24 11:13:57;;;;;;;8.07;6.93;;;;;;;35.14;21.89;65650.50;5043972;28;20218;-75
2022/07/24 11:16:29;;;;;;;7.18;6.57;;;;;;;34.53;24.66;65587.19;5043383;28;20257;-76
2022/07/24 11:19:31;;;;;;;6.80;6.22;;;;;;;34.44;22.70;65580.38;5041914;28;20486;-76
2022/07/24 11:22:18;;;;;;;6.15;5.65;;;;;;;34.88;22.99;65626.75;5023488;28;20217;-76
2022/07/24 11:25:12;;;;;;;6.63;5.93;;;;;;;35.61;22.07;65700.63;5023467;28;20221;-76
2022/07/24 11:27:43;;;;;;;7.15;6.13;;;;;;;36.05;21.83;65746.03;5023373;28;20222;-75
2022/07/24 11:30:12;;;;;;;8.73;6.95;;;;;;;36.47;21.51;65793.03;5041983;28;20201;-76
2022/07/24 11:32:40;;;;;;;7.30;6.63;;;;;;;36.51;22.21;65800.44;5043364;28;20217;-75